createdAt,value
2023-01-07T00:01:54.628Z,54.11
2023-01-07T00:04:21.801Z,53.89
2023-01-07T00:06:50.105Z,54.16
2023-01-07T00:09:17.285Z,54.36
2023-01-07T00:11:45.849Z,54.36
2023-01-07T00:14:14.387Z,54.45
2023-01-07T00:16:41.868Z,54.25
2023-01-07T00:19:13.444Z,54.58
2023-01-07T00:21:40.633Z,54.42
2023-01-07T00:24:09.830Z,54.52
2023-01-07T00:26:38.426Z,54.75
2023-01-07T00:29:06.911Z,54.79
2023-01-07T00:31:37.004Z,54.76
2023-01-07T00:34:04.362Z,54.65
2023-01-07T00:36:46.344Z,55.01
2023-01-07T00:39:16.632Z,55.03
2023-01-07T00:42:02.873Z,54.95
2023-01-07T00:44:30.640Z,55.23
2023-01-07T00:46:58.756Z,55.11
2023-01-07T00:49:26.078Z,55.24
2023-01-07T00:51:53.635Z,55.26
2023-01-07T00:54:20.696Z,55.29
2023-01-07T00:56:47.686Z,55.21
2023-01-07T00:59:14.566Z,55.44
2023-01-07T01:01:41.696Z,55.18
2023-01-07T01:04:08.800Z,55.34
2023-01-07T01:06:35.917Z,55.54
2023-01-07T01:09:03.294Z,55.41
2023-01-07T01:11:30.199Z,55.72
2023-01-07T01:13:57.037Z,55.57
2023-01-07T01:16:24.050Z,55.84
2023-01-07T01:18:50.987Z,55.58
2023-01-07T01:21:19.130Z,55.62
2023-01-07T01:23:46.123Z,55.93
2023-01-07T01:26:16.016Z,55.88
2023-01-07T01:28:43.819Z,55.80
2023-01-07T01:31:11.460Z,56.11
2023-01-07T01:33:38.538Z,55.90
2023-01-07T01:36:08.237Z,56.13
2023-01-07T01:38:35.175Z,56.00
2023-01-07T01:41:02.350Z,56.15
2023-01-07T01:43:35.331Z,55.91
2023-01-07T01:46:12.973Z,56.13
2023-01-07T01:48:46.640Z,56.23
2023-01-07T01:51:15.909Z,56.33
2023-01-07T01:53:42.981Z,56.36
2023-01-07T01:56:14.075Z,56.51
2023-01-07T01:58:50.191Z,56.23
2023-01-07T02:01:17.429Z,56.15
2023-01-07T02:03:45.126Z,56.50
2023-01-07T02:06:37.780Z,56.45
2023-01-07T02:09:05.139Z,56.61
2023-01-07T02:11:41.225Z,56.46
2023-01-07T02:14:38.109Z,56.42
2023-01-07T02:17:26.346Z,56.71
2023-01-07T02:20:11.306Z,56.75
2023-01-07T02:22:56.013Z,56.62
2023-01-07T02:26:00.176Z,56.72
2023-01-07T02:28:59.665Z,56.70
2023-01-07T02:31:26.506Z,56.82
2023-01-07T02:34:11.259Z,56.86
2023-01-07T02:36:45.141Z,56.84
2023-01-07T02:39:45.785Z,56.89
2023-01-07T02:42:15.320Z,56.90
2023-01-07T02:44:45.666Z,56.74
2023-01-07T02:47:26.415Z,56.99
2023-01-07T02:49:53.281Z,57.09
2023-01-07T02:52:25.878Z,56.89
2023-01-07T02:55:07.345Z,56.81
2023-01-07T02:58:12.644Z,56.82
2023-01-07T03:01:09.628Z,56.84
2023-01-07T03:03:46.667Z,56.69
2023-01-07T03:06:25.659Z,56.97
2023-01-07T03:09:12.765Z,56.88
2023-01-07T03:11:51.045Z,56.89
2023-01-07T03:14:32.886Z,57.01
2023-01-07T03:17:05.307Z,56.88
2023-01-07T03:19:35.969Z,56.88
2023-01-07T03:22:06.631Z,57.04
2023-01-07T03:24:33.914Z,56.76
2023-01-07T03:27:03.446Z,56.93
2023-01-07T03:29:32.544Z,57.12
2023-01-07T03:32:45.573Z,57.15
2023-01-07T03:35:12.767Z,56.96
2023-01-07T03:37:42.794Z,57.31
2023-01-07T03:40:12.065Z,57.13
2023-01-07T03:42:42.124Z,57.03
2023-01-07T03:45:15.112Z,57.18
2023-01-07T03:47:45.926Z,57.38
2023-01-07T03:50:12.795Z,57.26
2023-01-07T03:52:39.684Z,57.01
2023-01-07T03:55:07.322Z,57.20
2023-01-07T03:57:34.625Z,57.23
2023-01-07T04:00:01.657Z,57.37
2023-01-07T04:02:28.489Z,57.14
2023-01-07T04:04:55.384Z,57.19
2023-01-07T04:07:22.287Z,57.11
2023-01-07T04:09:50.630Z,56.98
2023-01-07T04:12:18.457Z,56.87
2023-01-07T04:14:45.627Z,57.06
2023-01-07T04:17:12.663Z,57.22
2023-01-07T04:19:39.997Z,56.88
2023-01-07T04:22:09.716Z,57.15
2023-01-07T04:24:36.546Z,57.14
2023-01-07T04:27:03.812Z,57.02
2023-01-07T04:29:30.800Z,57.33
2023-01-07T04:31:58.183Z,57.18
2023-01-07T04:34:25.841Z,57.13
2023-01-07T04:36:52.819Z,57.17
2023-01-07T04:39:19.890Z,57.19
2023-01-07T04:41:47.439Z,57.00
2023-01-07T04:44:15.750Z,57.28
2023-01-07T04:46:42.562Z,57.31
2023-01-07T04:49:09.871Z,57.19
2023-01-07T04:51:36.737Z,57.08
2023-01-07T04:54:03.619Z,57.08
2023-01-07T04:56:30.430Z,57.35
2023-01-07T04:58:57.331Z,57.19
2023-01-07T05:01:25.680Z,57.11
2023-01-07T05:03:52.642Z,57.28
2023-01-07T05:06:19.691Z,57.03
2023-01-07T05:08:46.512Z,57.22
2023-01-07T05:11:14.231Z,56.99
2023-01-07T05:13:41.043Z,57.05
2023-01-07T05:16:07.962Z,57.00
2023-01-07T05:18:34.783Z,57.05
2023-01-07T05:21:01.608Z,57.29
2023-01-07T05:23:28.443Z,57.25
2023-01-07T05:25:55.501Z,57.11
2023-01-07T05:28:22.351Z,57.00
2023-01-07T05:30:49.235Z,57.12
2023-01-07T05:33:16.107Z,57.18
2023-01-07T05:35:42.955Z,57.17
2023-01-07T05:38:09.877Z,57.41
2023-01-07T05:40:36.711Z,56.95
2023-01-07T05:43:03.639Z,57.15
2023-01-07T05:45:30.527Z,57.31
2023-01-07T05:47:57.496Z,57.18
2023-01-07T05:50:24.369Z,57.10
2023-01-07T05:52:52.182Z,57.09
2023-01-07T05:55:19.427Z,57.37
2023-01-07T05:57:46.277Z,57.26
2023-01-07T06:00:13.844Z,57.03
2023-01-07T06:02:40.680Z,57.34
2023-01-07T06:05:09.043Z,57.25
2023-01-07T06:07:36.402Z,57.25
2023-01-07T06:10:03.665Z,57.34
2023-01-07T06:12:31.054Z,57.27
2023-01-07T06:14:57.900Z,57.28
2023-01-07T06:17:24.730Z,57.17
2023-01-07T06:19:51.539Z,57.28
2023-01-07T06:22:18.424Z,57.44
2023-01-07T06:24:45.285Z,57.38
2023-01-07T06:27:13.037Z,57.52
2023-01-07T06:29:39.896Z,57.57
2023-01-07T06:32:07.040Z,57.64
2023-01-07T06:34:34.000Z,57.42
2023-01-07T06:37:01.009Z,57.49
2023-01-07T06:39:27.926Z,57.64
2023-01-07T06:41:54.806Z,57.53
2023-01-07T06:44:21.683Z,57.79
2023-01-07T06:46:48.506Z,57.64
2023-01-07T06:49:15.563Z,57.57
2023-01-07T06:51:42.354Z,57.69
2023-01-07T06:54:09.253Z,57.56
2023-01-07T06:56:36.065Z,57.46
2023-01-07T06:59:02.893Z,57.48
2023-01-07T07:01:29.797Z,57.26
2023-01-07T07:03:56.702Z,57.07
2023-01-07T07:06:23.565Z,57.15
2023-01-07T07:08:50.551Z,57.00
2023-01-07T07:11:17.418Z,56.86
2023-01-07T07:13:44.372Z,56.92
2023-01-07T07:16:11.453Z,57.46
2023-01-07T07:18:38.392Z,57.34
2023-01-07T07:21:05.413Z,57.54
2023-01-07T07:23:32.259Z,57.67
2023-01-07T07:25:59.155Z,57.87
2023-01-07T07:28:26.021Z,57.98
2023-01-07T07:30:52.921Z,58.53
2023-01-07T07:33:19.910Z,58.46
2023-01-07T07:35:47.197Z,58.64
2023-01-07T07:38:14.668Z,58.71
2023-01-07T07:40:41.499Z,58.49
2023-01-07T07:43:11.628Z,58.44
2023-01-07T07:45:39.937Z,58.74
2023-01-07T07:48:08.044Z,58.74
2023-01-07T07:50:36.201Z,58.62
2023-01-07T07:53:03.268Z,58.65
2023-01-07T07:55:30.123Z,58.60
2023-01-07T07:57:58.562Z,58.41
2023-01-07T08:00:25.752Z,58.64
2023-01-07T08:02:52.811Z,58.77
2023-01-07T08:05:19.857Z,58.64
2023-01-07T08:07:46.793Z,58.27
2023-01-07T08:10:13.639Z,58.29
2023-01-07T08:12:40.555Z,58.41
2023-01-07T08:15:08.514Z,58.06
2023-01-07T08:17:36.619Z,58.08
2023-01-07T08:20:05.166Z,57.59
2023-01-07T08:22:33.493Z,57.80
2023-01-07T08:25:00.769Z,57.67
2023-01-07T08:27:28.273Z,57.66
2023-01-07T08:29:56.141Z,57.60
2023-01-07T08:32:23.423Z,57.33
2023-01-07T08:34:50.451Z,57.43
2023-01-07T08:37:17.451Z,57.56
2023-01-07T08:39:44.284Z,57.70
2023-01-07T08:42:11.170Z,57.62
2023-01-07T08:44:38.242Z,57.51
2023-01-07T08:47:05.146Z,57.57
2023-01-07T08:49:32.104Z,57.36
2023-01-07T08:51:59.009Z,57.31
2023-01-07T08:54:25.881Z,57.39
2023-01-07T08:56:52.881Z,57.41
2023-01-07T08:59:19.758Z,57.31
2023-01-07T09:01:46.867Z,57.35
2023-01-07T09:04:13.928Z,57.31
2023-01-07T09:06:40.981Z,57.16
2023-01-07T09:09:07.912Z,57.16
2023-01-07T09:11:35.201Z,56.99
2023-01-07T09:14:02.160Z,56.83
2023-01-07T09:16:29.142Z,56.95
2023-01-07T09:18:56.091Z,56.77
2023-01-07T09:21:23.021Z,56.85
2023-01-07T09:23:49.888Z,56.17
2023-01-07T09:26:17.819Z,56.16
2023-01-07T09:28:44.699Z,56.06
2023-01-07T09:31:11.700Z,56.19
2023-01-07T09:33:40.438Z,56.39
2023-01-07T09:36:07.571Z,56.92
2023-01-07T09:38:34.601Z,56.59
2023-01-07T09:41:01.607Z,56.62
2023-01-07T09:44:00.306Z,56.72
2023-01-07T09:46:29.562Z,57.12
2023-01-07T09:49:01.985Z,57.03
2023-01-07T09:51:39.514Z,57.57
2023-01-07T09:54:21.982Z,56.77
2023-01-07T09:56:48.940Z,56.98
2023-01-07T09:59:16.809Z,56.97
2023-01-07T10:01:56.091Z,56.92
2023-01-07T10:04:42.427Z,56.87
2023-01-07T10:07:21.397Z,56.94
2023-01-07T10:09:59.333Z,56.78
2023-01-07T10:12:59.599Z,56.75
2023-01-07T10:15:35.970Z,56.69
2023-01-07T10:18:54.884Z,56.61
2023-01-07T10:21:24.140Z,56.69
2023-01-07T10:24:03.474Z,56.72
2023-01-07T10:26:36.099Z,56.90
2023-01-07T10:29:16.548Z,56.74
2023-01-07T10:31:46.089Z,56.82
2023-01-07T10:34:23.361Z,56.75
2023-01-07T10:37:03.699Z,56.81
2023-01-07T10:39:45.748Z,56.64
2023-01-07T10:42:46.577Z,56.81
2023-01-07T10:45:41.299Z,56.54
2023-01-07T10:48:23.207Z,56.69
2023-01-07T10:51:21.021Z,56.67
2023-01-07T10:54:03.859Z,56.59
2023-01-07T10:56:36.707Z,56.64
2023-01-07T10:59:04.462Z,56.64
2023-01-07T11:01:34.093Z,56.64
2023-01-07T11:04:02.000Z,56.75
2023-01-07T11:06:48.579Z,56.74
2023-01-07T11:09:23.307Z,56.62
2023-01-07T11:11:51.653Z,56.65
2023-01-07T11:14:28.637Z,56.72
2023-01-07T11:17:07.884Z,56.74
2023-01-07T11:19:49.629Z,56.70
2023-01-07T11:22:39.304Z,56.63
2023-01-07T11:25:24.555Z,56.35
2023-01-07T11:27:51.541Z,56.15
2023-01-07T11:30:26.740Z,56.09
2023-01-07T11:34:02.651Z,56.01
2023-01-07T11:36:13.043Z,55.72
2023-01-07T11:38:40.393Z,55.34
2023-01-07T11:41:20.696Z,54.77
2023-01-07T11:43:54.180Z,55.09
2023-01-07T11:46:25.904Z,55.82
2023-01-07T11:49:01.723Z,56.19
2023-01-07T11:51:40.424Z,56.26
2023-01-07T11:54:29.507Z,56.47
2023-01-07T11:57:22.975Z,56.68
2023-01-07T12:00:15.986Z,56.76
2023-01-07T12:02:44.273Z,57.11
2023-01-07T12:05:26.702Z,56.88
2023-01-07T12:07:55.966Z,56.98
2023-01-07T12:10:30.263Z,57.16
2023-01-07T12:12:59.811Z,57.39
2023-01-07T12:15:35.409Z,57.42
2023-01-07T12:18:08.217Z,57.07
2023-01-07T12:21:02.705Z,57.27
2023-01-07T12:23:53.817Z,57.40
2023-01-07T12:26:29.600Z,57.31
2023-01-07T12:29:02.781Z,57.51
2023-01-07T12:31:32.304Z,57.39
2023-01-07T12:34:17.409Z,57.59
2023-01-07T12:36:47.298Z,57.57
2023-01-07T12:39:24.864Z,57.44
2023-01-07T12:42:18.127Z,57.34
2023-01-07T12:44:53.409Z,57.22
2023-01-07T12:47:44.537Z,57.18
2023-01-07T12:50:18.531Z,57.68
2023-01-07T12:53:08.797Z,57.98
2023-01-07T12:55:41.139Z,57.89
2023-01-07T12:58:26.600Z,58.01
2023-01-07T13:01:27.217Z,57.44
2023-01-07T13:03:57.628Z,57.32
2023-01-07T13:06:43.034Z,57.53
2023-01-07T13:09:21.613Z,57.65
2023-01-07T13:12:41.700Z,57.78
2023-01-07T13:15:29.209Z,57.82
2023-01-07T13:17:57.296Z,57.80
2023-01-07T13:20:48.580Z,58.29
2023-01-07T13:23:27.755Z,58.21
2023-01-07T13:26:15.298Z,58.05
2023-01-07T13:28:48.199Z,57.75
2023-01-07T13:31:47.046Z,57.79
2023-01-07T13:34:31.966Z,57.77
2023-01-07T13:37:36.476Z,57.52
2023-01-07T13:40:39.147Z,57.78
2023-01-07T13:43:21.839Z,57.42
2023-01-07T13:46:05.084Z,57.18
2023-01-07T13:48:34.998Z,57.23
2023-01-07T13:51:05.120Z,57.08
2023-01-07T13:53:40.376Z,56.89
2023-01-07T13:56:19.453Z,57.23
2023-01-07T13:58:46.687Z,56.77
2023-01-07T14:01:16.056Z,56.67
2023-01-07T14:03:50.357Z,57.11
2023-01-07T14:06:20.327Z,56.83
2023-01-07T14:09:14.151Z,57.00
2023-01-07T14:11:59.702Z,56.67
2023-01-07T14:14:36.167Z,56.49
2023-01-07T14:17:18.079Z,56.49
2023-01-07T14:20:11.515Z,56.33
2023-01-07T14:23:01.272Z,56.24
2023-01-07T14:25:58.616Z,56.30
2023-01-07T14:28:40.661Z,56.41
2023-01-07T14:31:24.583Z,56.25
2023-01-07T14:33:58.569Z,56.23
2023-01-07T14:37:09.182Z,56.33
2023-01-07T14:39:38.780Z,56.31
2023-01-07T14:42:20.843Z,56.06
2023-01-07T14:44:51.711Z,56.46
2023-01-07T14:47:43.480Z,56.14
2023-01-07T14:50:53.262Z,56.04
2023-01-07T14:53:48.220Z,56.03
2023-01-07T14:56:18.108Z,56.13
2023-01-07T14:59:18.747Z,55.83
2023-01-07T15:02:03.568Z,55.71
2023-01-07T15:05:08.028Z,55.46
2023-01-07T15:07:38.660Z,55.56
2023-01-07T15:10:42.072Z,56.07
2023-01-07T15:13:35.354Z,55.58
2023-01-07T15:16:07.690Z,55.48
2023-01-07T15:18:48.398Z,55.54
2023-01-07T15:21:30.281Z,55.62
2023-01-07T15:24:15.575Z,55.63
2023-01-07T15:27:19.782Z,55.52
2023-01-07T15:30:24.495Z,55.57
2023-01-07T15:32:56.840Z,55.42
2023-01-07T15:35:28.880Z,55.37
2023-01-07T15:37:57.060Z,55.36
2023-01-07T15:40:26.239Z,55.09
2023-01-07T15:42:57.397Z,55.49
2023-01-07T15:45:25.544Z,55.03
2023-01-07T15:47:52.659Z,55.25
2023-01-07T15:50:29.487Z,55.19
2023-01-07T15:52:57.922Z,55.05
2023-01-07T15:55:33.927Z,54.87
2023-01-07T15:58:05.388Z,55.05
2023-01-07T16:00:35.247Z,55.49
2023-01-07T16:03:04.775Z,55.56
2023-01-07T16:05:32.489Z,55.56
2023-01-07T16:08:01.599Z,55.30
2023-01-07T16:10:35.121Z,55.16
2023-01-07T16:13:05.453Z,55.25
2023-01-07T16:15:38.814Z,55.11
2023-01-07T16:18:25.995Z,54.98
2023-01-07T16:20:57.834Z,51.29
2023-01-07T16:23:31.014Z,53.31
2023-01-07T16:26:06.895Z,53.35
2023-01-07T16:28:47.132Z,53.48
2023-01-07T16:31:16.542Z,53.36
2023-01-07T16:33:44.378Z,53.13
2023-01-07T16:36:17.868Z,53.27
2023-01-07T16:38:50.627Z,53.18
2023-01-07T16:41:22.911Z,53.54
2023-01-07T16:43:53.075Z,53.79
2023-01-07T16:46:31.461Z,53.97
2023-01-07T16:49:20.133Z,53.99
2023-01-07T16:51:53.120Z,54.04
2023-01-07T16:54:26.217Z,54.09
2023-01-07T16:56:58.974Z,54.10
2023-01-07T16:59:30.738Z,54.13
2023-01-07T17:02:00.391Z,54.14
2023-01-07T17:04:30.925Z,54.33
2023-01-07T17:07:01.401Z,54.31
2023-01-07T17:09:36.185Z,54.30
2023-01-07T17:12:03.197Z,54.26
2023-01-07T17:14:37.080Z,54.30
2023-01-07T17:17:21.060Z,54.00
2023-01-07T17:19:58.505Z,54.10
2023-01-07T17:22:38.899Z,54.15
2023-01-07T17:25:21.921Z,54.16
2023-01-07T17:27:53.688Z,53.57
2023-01-07T17:30:22.994Z,53.48
2023-01-07T17:32:51.179Z,53.60
2023-01-07T17:35:19.400Z,50.17
2023-01-07T17:37:46.575Z,49.14
2023-01-07T17:40:14.664Z,50.80
2023-01-07T17:43:00.948Z,51.47
2023-01-07T17:45:29.326Z,51.97
2023-01-07T17:47:57.245Z,52.13
2023-01-07T17:50:24.301Z,52.25
2023-01-07T17:52:55.111Z,52.34
2023-01-07T17:55:26.201Z,52.57
2023-01-07T17:57:53.132Z,52.70
2023-01-07T18:00:23.509Z,52.98
2023-01-07T18:02:51.700Z,53.25
2023-01-07T18:05:18.883Z,53.36
2023-01-07T18:07:48.251Z,53.48
2023-01-07T18:10:17.297Z,53.55
2023-01-07T18:12:45.109Z,53.30
2023-01-07T18:15:24.992Z,53.52
2023-01-07T18:17:52.810Z,53.44
2023-01-07T18:20:21.959Z,53.48
2023-01-07T18:22:50.188Z,53.50
2023-01-07T18:25:20.212Z,53.44
2023-01-07T18:27:48.754Z,53.72
2023-01-07T18:30:19.115Z,53.58
2023-01-07T18:32:46.661Z,53.40
2023-01-07T18:35:14.656Z,53.35
2023-01-07T18:37:43.467Z,53.20
2023-01-07T18:40:10.833Z,53.16
2023-01-07T18:42:38.088Z,52.99
2023-01-07T18:45:07.339Z,53.29
2023-01-07T18:47:34.647Z,53.20
2023-01-07T18:50:02.071Z,52.97
2023-01-07T18:52:32.138Z,52.97
2023-01-07T18:54:59.910Z,53.03
2023-01-07T18:57:27.226Z,52.97
2023-01-07T18:59:54.397Z,53.10
2023-01-07T19:02:22.573Z,53.04
2023-01-07T19:04:51.814Z,53.26
2023-01-07T19:07:22.402Z,53.37
2023-01-07T19:09:51.380Z,53.44
2023-01-07T19:12:19.384Z,53.74
2023-01-07T19:14:46.678Z,53.79
2023-01-07T19:17:13.803Z,53.82
2023-01-07T19:19:48.473Z,54.04
2023-01-07T19:22:16.934Z,51.95
2023-01-07T19:24:44.810Z,52.10
2023-01-07T19:27:12.481Z,52.02
2023-01-07T19:29:39.873Z,51.98
2023-01-07T19:32:07.132Z,52.00
2023-01-07T19:34:34.355Z,52.04
2023-01-07T19:37:01.529Z,51.95
2023-01-07T19:39:28.968Z,52.22
2023-01-07T19:41:56.105Z,52.28
2023-01-07T19:44:23.144Z,52.31
2023-01-07T19:46:50.233Z,52.06
2023-01-07T19:49:17.855Z,52.14
2023-01-07T19:51:45.129Z,52.09
2023-01-07T19:54:17.409Z,52.11
2023-01-07T19:56:46.454Z,51.80
2023-01-07T19:59:16.871Z,51.74
2023-01-07T20:01:46.358Z,51.75
2023-01-07T20:04:14.188Z,51.21
2023-01-07T20:06:42.013Z,51.21
2023-01-07T20:09:12.627Z,50.67
2023-01-07T20:11:41.007Z,50.69
2023-01-07T20:14:08.577Z,50.52
2023-01-07T20:16:39.945Z,50.54
2023-01-07T20:19:07.740Z,50.64
2023-01-07T20:21:39.323Z,50.55
2023-01-07T20:24:08.072Z,50.81
2023-01-07T20:26:35.945Z,50.80
2023-01-07T20:29:03.066Z,50.83
2023-01-07T20:31:32.197Z,50.75
2023-01-07T20:34:00.434Z,50.45
2023-01-07T20:36:34.025Z,50.71
2023-01-07T20:39:06.669Z,50.71
2023-01-07T20:41:36.110Z,49.86
2023-01-07T20:44:04.971Z,49.63
2023-01-07T20:46:35.515Z,49.57
2023-01-07T20:49:02.905Z,48.94
2023-01-07T20:51:30.136Z,49.14
2023-01-07T20:53:58.336Z,49.51
2023-01-07T20:56:32.536Z,49.54
2023-01-07T20:59:02.695Z,49.69
2023-01-07T21:01:30.664Z,49.60
2023-01-07T21:04:02.769Z,49.20
2023-01-07T21:06:31.657Z,49.29
2023-01-07T21:09:03.338Z,49.24
2023-01-07T21:11:30.950Z,49.40
2023-01-07T21:13:58.536Z,49.08
2023-01-07T21:16:28.971Z,49.00
2023-01-07T21:18:57.102Z,48.74
2023-01-07T21:21:26.734Z,48.83
2023-01-07T21:23:55.495Z,49.00
2023-01-07T21:26:24.117Z,48.94
2023-01-07T21:28:59.990Z,48.77
2023-01-07T21:31:28.297Z,49.06
2023-01-07T21:33:58.741Z,49.07
2023-01-07T21:36:28.694Z,49.21
2023-01-07T21:38:59.717Z,49.27
2023-01-07T21:41:27.692Z,49.32
2023-01-07T21:43:56.418Z,49.54
2023-01-07T21:46:26.805Z,49.50
2023-01-07T21:48:53.844Z,49.43
2023-01-07T21:51:26.141Z,49.67
2023-01-07T21:53:58.590Z,49.69
2023-01-07T21:56:32.503Z,49.79
2023-01-07T21:59:00.288Z,49.99
2023-01-07T22:01:30.845Z,50.04
2023-01-07T22:03:59.632Z,50.16
2023-01-07T22:06:30.485Z,50.14
2023-01-07T22:09:05.500Z,50.21
2023-01-07T22:11:35.488Z,50.38
2023-01-07T22:14:03.441Z,50.48
2023-01-07T22:16:35.877Z,50.59
2023-01-07T22:19:04.042Z,50.64
2023-01-07T22:21:33.122Z,50.67
2023-01-07T22:24:00.263Z,50.88
2023-01-07T22:26:27.388Z,50.79
2023-01-07T22:28:58.206Z,50.84
2023-01-07T22:31:28.912Z,50.95
2023-01-07T22:33:56.738Z,51.11
2023-01-07T22:36:31.512Z,51.06
2023-01-07T22:39:03.167Z,51.11
2023-01-07T22:41:33.896Z,51.19
2023-01-07T22:44:09.973Z,51.40
2023-01-07T22:46:39.480Z,51.30
2023-01-07T22:49:07.405Z,51.52
2023-01-07T22:51:44.120Z,51.51
2023-01-07T22:54:14.092Z,51.68
2023-01-07T22:56:42.660Z,51.66
2023-01-07T22:59:10.095Z,51.57
2023-01-07T23:01:41.177Z,51.68
2023-01-07T23:04:08.456Z,51.81
2023-01-07T23:06:35.692Z,51.83
2023-01-07T23:09:03.131Z,52.04
2023-01-07T23:11:51.356Z,52.07
2023-01-07T23:14:21.647Z,51.92
2023-01-07T23:16:50.313Z,52.10
2023-01-07T23:19:20.183Z,52.12
2023-01-07T23:21:49.594Z,52.09
2023-01-07T23:24:17.082Z,52.25
2023-01-07T23:26:44.634Z,52.33
2023-01-07T23:29:11.698Z,52.36
2023-01-07T23:31:38.949Z,52.28
2023-01-07T23:34:06.826Z,52.47
2023-01-07T23:36:35.699Z,52.60
2023-01-07T23:39:02.876Z,52.42
2023-01-07T23:41:31.286Z,52.50
2023-01-07T23:43:58.445Z,52.77
2023-01-07T23:46:25.349Z,52.63
2023-01-07T23:48:52.641Z,52.74
2023-01-07T23:51:21.577Z,52.94
2023-01-07T23:53:48.833Z,53.00
2023-01-07T23:56:20.768Z,52.90
2023-01-07T23:58:49.152Z,52.91
